2014 Mooloolaba ITU Triathlon World Cup : Mar 15 2014 : Elite Women : Results

Pos First Name Last Name Country Time Swim T1 Bike T2 Run
1 Gwen Jorgensen USA 00:59:55 00:09:57 00:00:49 00:32:18 00:00:17 00:16:32
2 Katie Hursey USA 01:00:10 00:09:40 00:00:50 00:32:33 00:00:16 00:16:48
3 Ai Ueda JPN 01:00:14 00:10:26 00:00:50 00:31:49 00:00:16 00:16:51
4 Ellen Pennock CAN 01:00:25 00:09:59 00:00:48 00:32:20 00:00:20 00:16:57
5 Andrea Hewitt NZL 01:00:32 00:10:21 00:00:52 00:31:51 00:00:17 00:17:10
6 Emma Moffatt AUS 01:00:44 00:09:52 00:00:52 00:32:17 00:00:15 00:17:26
7 Kirsten Sweetland CAN 01:00:52 00:09:45 00:00:51 00:32:28 00:00:17 00:17:28
8 Rebecca Robisch GER 01:00:55 00:10:23 00:00:51 00:31:47 00:00:17 00:17:35
9 Anja Knapp GER 01:01:07 00:10:06 00:00:52 00:32:04 00:00:19 00:17:44
10 Ashleigh Gentle AUS 01:01:10 00:10:22 00:00:51 00:31:49 00:00:17 00:17:48
11 Yuko Takahashi JPN 01:01:16 00:09:49 00:00:54 00:32:24 00:00:17 00:17:50
12 Chelsea Burns USA 01:01:25 00:10:17 00:00:49 00:32:02 00:00:19 00:17:56
13 Jaz Hedgeland AUS 01:01:33 00:10:11 00:00:50 00:32:02 00:00:16 00:18:11
14 Rachel Klamer NED 01:01:38 00:09:56 00:00:54 00:32:15 00:00:18 00:18:13
15 Gillian Backhouse AUS 01:01:44 00:10:07 00:00:53 00:32:01 00:00:18 00:18:22
16 Carolina Routier ESP 01:02:03 00:09:43 00:00:54 00:32:31 00:00:16 00:18:37
17 Paula Findlay CAN 01:02:25 00:10:11 00:00:52 00:32:06 00:00:17 00:18:57
18 Anel Radford RSA 01:02:35 00:09:56 00:00:53 00:32:17 00:00:18 00:19:08
19 Charlotte Mcshane AUS 01:02:35 00:10:07 00:00:53 00:32:08 00:00:16 00:19:11
20 Daria Pletikapa CRO 01:02:59 00:10:08 00:00:53 00:32:05 00:00:17 00:19:34
21 Claire Michel BEL 01:03:09 00:10:23 00:00:57 00:34:06 00:00:18 00:17:24
22 Vendula Frintova CZE 01:03:33 00:10:09 00:00:51 00:34:19 00:00:19 00:17:52
23 Hanna Philippin GER 01:04:12 00:10:21 00:00:54 00:34:03 00:00:18 00:18:35
24 Michelle Mehnert USA 01:04:37 00:10:19 00:00:50 00:34:15 00:00:23 00:18:48
25 Sofie Hooghe BEL 01:04:45 00:10:25 00:00:55 00:33:58 00:00:19 00:19:05
26 Tamara Gomez Garrido ESP 01:05:12 00:10:26 00:00:58 00:33:57 00:00:18 00:19:31
27 Laura Wood NZL 01:06:12 00:10:23 00:00:56 00:34:02 00:00:18 00:20:31
DNF Maria Czesnik POL 00:00:00 00:10:22 00:00:55 00:34:03 00:00:19 00:00:00
DNF Michelle Flipo MEX 00:00:00 00:10:28 00:00:50 00:00:00 00:00:00 00:00:00
DNF Ayami Kawaguchi JPN 00:00:00 00:10:31 00:00:53 00:00:00 00:00:00 00:00:00
DNF Zsanett Horvath HUN 00:00:00 00:10:29 00:00:54 00:00:00 00:00:00 00:00:00
DNF Lisa Sieburger GER 00:00:00 00:11:08 00:00:57 00:00:00 00:00:00 00:00:00

Distances: Swim 750 m (1 lap), Bike 20.6 km (4 laps) Run 4 km (4 laps) Water temperature 26,2 C, wetsuits not allowed. Humidity 52%.MIchelle Mehnert/USA got a 10 seconds penalty